Time;durP1;ratioP1;P1;durP2;ratioP2;P2;SDS_P1;SDS_P2;PMS_P1;PMS_P2;Temp;Humidity;BMP_temperature;BMP_pressure;BME280_temperature;BME280_humidity;BME280_pressure;Samples;Min_cycle;Max_cycle;Signal;HPM_P1;HPM_P2
2023/04/19 00:02:20;;;;;;;8.55;4.80;;;7.80;99.90;;;;;;5030063;28;20520;-77
2023/04/19 00:04:47;;;;;;;6.80;5.25;;;7.80;99.90;;;;;;5031265;28;20049;-77
2023/04/19 00:07:15;;;;;;;10.35;5.05;;;7.80;99.90;;;;;;5032298;28;20390;-77
2023/04/19 00:09:42;;;;;;;6.80;4.68;;;7.70;99.90;;;;;;5034620;28;20470;-77
2023/04/19 00:12:09;;;;;;;7.80;5.22;;;7.70;99.90;;;;;;5030086;28;20129;-75
2023/04/19 00:14:36;;;;;;;7.03;5.25;;;7.70;99.90;;;;;;5035121;28;20045;-78
2023/04/19 00:17:02;;;;;;;5.43;4.45;;;7.70;99.90;;;;;;5034939;28;20049;-78
2023/04/19 00:19:29;;;;;;;6.40;4.45;;;7.70;99.90;;;;;;5034463;28;20045;-77
2023/04/19 00:21:56;;;;;;;5.38;4.65;;;7.70;99.90;;;;;;5035503;28;20129;-77
2023/04/19 00:24:22;;;;;;;6.10;4.82;;;7.60;99.90;;;;;;5029727;28;20076;-76
2023/04/19 00:26:49;;;;;;;5.47;4.40;;;7.60;99.90;;;;;;5047200;28;20128;-77
2023/04/19 00:29:16;;;;;;;5.57;4.25;;;7.60;99.90;;;;;;5030672;28;20128;-77
2023/04/19 00:31:42;;;;;;;6.07;4.70;;;7.60;99.90;;;;;;5034821;28;20123;-77
2023/04/19 00:34:09;;;;;;;7.05;4.15;;;7.60;99.90;;;;;;5032344;28;20580;-78
2023/04/19 00:36:36;;;;;;;5.07;4.22;;;7.50;99.90;;;;;;5034024;28;20088;-77
2023/04/19 00:39:03;;;;;;;5.97;4.68;;;7.50;99.90;;;;;;5034801;28;20057;-78
2023/04/19 00:41:29;;;;;;;6.00;4.90;;;7.50;99.90;;;;;;5034044;28;20050;-76
2023/04/19 00:43:56;;;;;;;8.07;4.65;;;7.50;99.90;;;;;;5035628;28;20112;-78
2023/04/19 00:46:23;;;;;;;7.13;5.13;;;7.50;99.90;;;;;;5034685;28;20067;-77
2023/04/19 00:48:50;;;;;;;7.25;4.70;;;7.50;99.90;;;;;;5036458;28;20129;-77
2023/04/19 00:51:18;;;;;;;5.97;4.65;;;7.50;99.90;;;;;;5032620;28;20065;-77
2023/04/19 00:53:45;;;;;;;9.93;4.50;;;7.40;99.90;;;;;;5035831;28;20084;-78
2023/04/19 00:56:13;;;;;;;5.97;4.40;;;7.40;99.90;;;;;;5036016;28;20461;-77
2023/04/19 00:58:40;;;;;;;7.85;5.28;;;7.40;99.90;;;;;;5029536;28;20125;-77
2023/04/19 01:01:07;;;;;;;5.32;4.22;;;7.40;99.90;;;;;;5033201;28;20481;-77
2023/04/19 01:03:35;;;;;;;8.10;4.43;;;7.40;99.90;;;;;;5029472;28;20042;-77
2023/04/19 01:06:02;;;;;;;6.25;4.65;;;7.30;99.90;;;;;;5032383;28;20468;-77
2023/04/19 01:08:29;;;;;;;6.75;4.32;;;7.30;99.90;;;;;;5031904;28;20052;-77
2023/04/19 01:10:56;;;;;;;5.53;4.45;;;7.30;99.90;;;;;;5032423;28;20044;-77
2023/04/19 01:13:23;;;;;;;6.85;4.97;;;7.20;99.90;;;;;;5033685;28;20060;-77
2023/04/19 01:15:50;;;;;;;5.20;4.70;;;7.20;99.90;;;;;;5032447;28;20042;-77
2023/04/19 01:18:18;;;;;;;7.95;5.18;;;7.20;99.90;;;;;;5034141;28;20045;-77
2023/04/19 01:20:45;;;;;;;5.93;4.50;;;7.20;99.90;;;;;;5032560;28;20049;-77
2023/04/19 01:23:11;;;;;;;7.32;4.65;;;7.20;99.90;;;;;;5034851;28;20566;-77
2023/04/19 01:25:38;;;;;;;6.70;5.03;;;7.20;99.90;;;;;;5034467;28;20045;-78
2023/04/19 01:28:05;;;;;;;6.63;4.25;;;7.20;99.90;;;;;;5035640;28;20045;-78
2023/04/19 01:30:32;;;;;;;6.57;4.82;;;7.10;99.90;;;;;;5034560;28;20084;-78
2023/04/19 01:32:58;;;;;;;10.02;4.82;;;7.10;99.90;;;;;;5035841;28;20051;-77
2023/04/19 01:35:25;;;;;;;7.78;5.28;;;7.00;99.90;;;;;;5034197;28;20049;-78
2023/04/19 01:37:54;;;;;;;8.52;5.18;;;7.00;99.90;;;;;;5032987;28;20124;-77
2023/04/19 01:40:24;;;;;;;7.65;5.38;;;7.00;99.90;;;;;;5030768;28;20463;-77
2023/04/19 01:42:52;;;;;;;6.22;5.38;;;7.00;99.90;;;;;;5031918;28;20038;-77
2023/04/19 01:45:19;;;;;;;6.72;4.68;;;7.00;99.90;;;;;;5030138;28;20045;-77
2023/04/19 01:47:45;;;;;;;6.80;4.57;;;7.00;99.90;;;;;;5034524;28;20045;-78
2023/04/19 01:50:12;;;;;;;6.57;4.70;;;6.90;99.90;;;;;;5033629;28;20124;-78
2023/04/19 01:52:39;;;;;;;7.05;4.47;;;6.90;99.90;;;;;;5034696;28;20053;-77
2023/04/19 01:55:06;;;;;;;5.50;4.43;;;6.90;99.90;;;;;;5033599;28;20132;-77
2023/04/19 01:57:33;;;;;;;6.97;4.88;;;6.90;99.90;;;;;;5029500;28;20100;-77
2023/04/19 02:00:00;;;;;;;7.55;5.00;;;6.90;99.90;;;;;;5029782;28;20491;-77
2023/04/19 02:02:27;;;;;;;5.32;4.28;;;6.90;99.90;;;;;;5032184;28;20124;-77
2023/04/19 02:04:54;;;;;;;5.85;4.13;;;6.90;99.90;;;;;;5028941;28;20049;-78
2023/04/19 02:07:20;;;;;;;9.02;4.88;;;6.80;99.90;;;;;;5028117;28;20037;-77
2023/04/19 02:09:47;;;;;;;7.05;5.07;;;6.90;99.90;;;;;;5029529;28;20042;-77
2023/04/19 02:12:14;;;;;;;9.00;5.97;;;6.80;99.90;;;;;;5031818;28;20092;-77
2023/04/19 02:14:41;;;;;;;8.45;5.75;;;6.80;99.90;;;;;;5026248;28;20140;-77
2023/04/19 02:17:08;;;;;;;8.30;5.82;;;6.80;99.90;;;;;;5032702;28;20052;-77
2023/04/19 02:19:35;;;;;;;7.30;4.78;;;6.80;99.90;;;;;;5030221;28;20524;-77
2023/04/19 02:22:02;;;;;;;8.88;5.00;;;6.70;99.90;;;;;;5034030;28;20073;-78
2023/04/19 02:24:28;;;;;;;6.30;4.72;;;6.70;99.90;;;;;;5031444;28;20069;-77
2023/04/19 02:26:55;;;;;;;6.28;4.55;;;6.70;99.90;;;;;;5032828;28;20730;-77
2023/04/19 02:29:22;;;;;;;6.32;4.60;;;6.70;99.90;;;;;;5033745;28;20056;-77
2023/04/19 02:31:49;;;;;;;7.13;4.82;;;6.70;99.90;;;;;;5029087;28;20042;-77
2023/04/19 02:34:16;;;;;;;6.13;4.35;;;6.70;99.90;;;;;;5034027;28;20486;-77
2023/04/19 02:36:43;;;;;;;6.50;4.60;;;6.60;99.90;;;;;;5029484;28;20052;-77
2023/04/19 02:39:10;;;;;;;6.30;4.93;;;6.60;99.90;;;;;;5033933;28;20037;-77
2023/04/19 02:41:36;;;;;;;6.72;4.88;;;6.60;99.90;;;;;;5030462;28;20124;-77
2023/04/19 02:44:03;;;;;;;6.65;5.05;;;6.60;99.90;;;;;;5030818;28;20083;-77
2023/04/19 02:46:30;;;;;;;5.85;4.40;;;6.60;99.90;;;;;;5030936;28;20041;-77
2023/04/19 02:48:59;;;;;;;8.77;5.53;;;6.60;99.90;;;;;;5027995;28;20054;-76
2023/04/19 02:51:26;;;;;;;6.63;5.20;;;6.50;99.90;;;;;;5031056;28;20037;-77
2023/04/19 02:53:53;;;;;;;6.18;5.10;;;6.50;99.90;;;;;;5031216;28;20071;-78
2023/04/19 02:56:19;;;;;;;9.48;5.38;;;6.50;99.90;;;;;;5031112;28;20045;-77
2023/04/19 02:58:46;;;;;;;6.78;5.15;;;6.50;99.90;;;;;;5032487;28;20073;-78
2023/04/19 03:01:13;;;;;;;5.72;4.50;;;6.40;99.90;;;;;;5029111;28;20049;-76
2023/04/19 03:03:40;;;;;;;7.88;5.07;;;6.40;99.90;;;;;;5029161;28;20068;-77
2023/04/19 03:06:07;;;;;;;7.57;5.28;;;6.40;99.90;;;;;;5032470;28;20045;-77
2023/04/19 03:08:35;;;;;;;8.15;5.28;;;6.40;99.90;;;;;;5032012;28;20038;-77
2023/04/19 03:11:01;;;;;;;6.85;5.07;;;6.40;99.90;;;;;;5032401;28;20092;-78
2023/04/19 03:13:28;;;;;;;7.32;5.00;;;6.40;99.90;;;;;;5031895;28;20045;-77
2023/04/19 03:15:55;;;;;;;6.68;4.80;;;6.30;99.90;;;;;;5029487;28;20132;-77
2023/04/19 03:18:22;;;;;;;6.60;4.93;;;6.30;99.90;;;;;;5032205;28;20505;-76
2023/04/19 03:20:48;;;;;;;6.72;4.57;;;6.30;99.90;;;;;;5030330;28;20041;-78
2023/04/19 03:23:15;;;;;;;6.38;4.15;;;6.30;99.90;;;;;;5029862;28;20041;-77
2023/04/19 03:25:42;;;;;;;6.18;4.50;;;6.30;99.90;;;;;;5028832;28;20394;-77
2023/04/19 03:28:08;;;;;;;6.03;5.00;;;6.30;99.90;;;;;;5032236;28;20133;-77
2023/04/19 03:30:35;;;;;;;7.25;4.45;;;6.30;99.90;;;;;;5028190;28;20041;-77
2023/04/19 03:33:02;;;;;;;7.93;4.95;;;6.20;99.90;;;;;;5032665;28;20125;-77
2023/04/19 03:35:31;;;;;;;11.30;5.53;;;6.20;99.90;;;;;;5029176;28;20056;-77
2023/04/19 03:37:58;;;;;;;7.18;4.93;;;6.20;99.90;;;;;;5031211;28;20076;-77
2023/04/19 03:40:24;;;;;;;11.40;5.38;;;6.20;99.90;;;;;;5036332;28;20084;-77
2023/04/19 03:42:51;;;;;;;7.82;5.05;;;6.20;99.90;;;;;;5036169;28;20041;-77
2023/04/19 03:45:18;;;;;;;6.50;4.75;;;6.20;99.90;;;;;;5036776;28;20128;-77
2023/04/19 03:47:45;;;;;;;8.60;5.50;;;6.20;99.90;;;;;;5035352;28;20049;-77
2023/04/19 03:50:11;;;;;;;8.77;5.30;;;6.10;99.90;;;;;;5032086;28;20091;-77
2023/04/19 03:52:38;;;;;;;7.13;4.90;;;6.20;99.90;;;;;;5031435;28;20077;-77
2023/04/19 03:55:05;;;;;;;6.38;4.60;;;6.10;99.90;;;;;;5034419;28;20572;-77
2023/04/19 03:57:32;;;;;;;9.25;5.45;;;6.10;99.90;;;;;;5031680;28;20088;-77
2023/04/19 03:59:59;;;;;;;8.27;5.53;;;6.10;99.90;;;;;;5029562;28;20100;-77
2023/04/19 04:02:26;;;;;;;7.15;5.05;;;6.10;99.90;;;;;;5033827;28;20069;-77
2023/04/19 04:04:54;;;;;;;8.73;6.03;;;6.10;99.90;;;;;;5031382;28;20111;-77
2023/04/19 04:07:22;;;;;;;9.68;5.47;;;6.10;99.90;;;;;;5034156;28;20045;-78
2023/04/19 04:09:49;;;;;;;7.45;5.45;;;6.00;99.90;;;;;;5034329;28;20073;-77
2023/04/19 04:12:15;;;;;;;7.57;5.28;;;6.00;99.90;;;;;;5033904;28;20128;-78
2023/04/19 04:14:42;;;;;;;9.05;5.35;;;6.00;99.90;;;;;;5035181;28;20511;-78
2023/04/19 04:17:09;;;;;;;6.22;4.72;;;6.00;99.90;;;;;;5034031;28;20129;-77
2023/04/19 04:19:35;;;;;;;8.13;6.15;;;6.00;99.90;;;;;;5033589;28;20140;-77
2023/04/19 04:22:03;;;;;;;9.65;5.28;;;6.00;99.90;;;;;;5034554;28;20050;-77
2023/04/19 04:24:31;;;;;;;6.18;5.05;;;5.90;99.90;;;;;;5035453;28;20148;-77
2023/04/19 04:26:59;;;;;;;8.23;5.75;;;5.90;99.90;;;;;;5035236;28;20046;-76
2023/04/19 04:29:27;;;;;;;7.38;4.75;;;5.90;99.90;;;;;;5033294;28;20073;-77
2023/04/19 04:31:55;;;;;;;7.05;5.07;;;5.90;99.90;;;;;;5029804;28;20080;-77
2023/04/19 04:34:23;;;;;;;7.93;5.55;;;5.90;99.90;;;;;;5027436;28;20095;-77
2023/04/19 04:36:50;;;;;;;8.63;5.28;;;5.90;99.90;;;;;;5033016;28;20046;-77
2023/04/19 04:39:17;;;;;;;9.18;5.70;;;5.90;99.90;;;;;;5031893;28;20080;-77
2023/04/19 04:41:43;;;;;;;9.02;5.53;;;5.90;99.90;;;;;;5030577;28;20077;-77
2023/04/19 04:44:11;;;;;;;6.82;4.95;;;5.90;99.90;;;;;;5034085;28;20045;-77
2023/04/19 04:46:48;;;;;;;8.07;4.90;;;5.90;99.90;;;;;;5032964;28;20045;-77
2023/04/19 04:49:15;;;;;;;7.95;5.22;;;5.90;99.90;;;;;;5034077;28;20136;-77
2023/04/19 04:51:42;;;;;;;9.82;5.30;;;5.90;99.90;;;;;;5033392;28;20480;-77
2023/04/19 04:54:08;;;;;;;14.00;5.60;;;5.90;99.90;;;;;;5032539;28;20057;-77
2023/04/19 04:56:35;;;;;;;8.93;5.60;;;5.90;99.90;;;;;;5031861;28;20081;-78
2023/04/19 04:59:02;;;;;;;7.07;4.85;;;5.90;99.90;;;;;;5033610;28;20096;-77
2023/04/19 05:01:29;;;;;;;8.10;5.43;;;5.90;99.90;;;;;;5034498;28;20053;-77
2023/04/19 05:03:56;;;;;;;7.18;5.28;;;5.90;99.90;;;;;;5027185;28;20046;-76
2023/04/19 05:06:22;;;;;;;6.63;4.35;;;5.90;99.90;;;;;;5014431;28;20469;-75
2023/04/19 05:08:49;;;;;;;6.03;4.60;;;5.90;99.90;;;;;;5028458;28;20099;-77
2023/04/19 05:11:16;;;;;;;6.25;5.05;;;5.90;99.90;;;;;;5030899;28;20424;-77
2023/04/19 05:13:43;;;;;;;7.95;5.25;;;5.90;99.90;;;;;;5030691;28;20081;-77
2023/04/19 05:16:09;;;;;;;8.10;5.50;;;6.00;99.90;;;;;;5031540;28;20045;-77
2023/04/19 05:18:36;;;;;;;7.22;5.57;;;6.00;99.90;;;;;;5032379;28;20049;-77
2023/04/19 05:21:03;;;;;;;5.55;4.85;;;6.10;99.90;;;;;;5031502;28;20515;-77
2023/04/19 05:23:30;;;;;;;9.00;5.90;;;6.10;99.90;;;;;;5033744;28;20100;-77
2023/04/19 05:25:56;;;;;;;13.57;5.82;;;6.20;99.90;;;;;;5032915;28;20041;-77
2023/04/19 05:28:23;;;;;;;8.77;6.10;;;6.30;99.90;;;;;;5034222;28;20386;-77
2023/04/19 05:30:51;;;;;;;8.55;5.72;;;6.40;99.90;;;;;;5031003;28;20037;-77
2023/04/19 05:33:17;;;;;;;11.95;6.78;;;6.50;99.90;;;;;;5033995;28;20041;-78
2023/04/19 05:35:44;;;;;;;8.93;6.50;;;6.50;99.90;;;;;;5034002;28;20113;-77
2023/04/19 05:38:11;;;;;;;9.77;7.47;;;6.60;99.90;;;;;;5034460;28;20049;-77
2023/04/19 05:40:38;;;;;;;9.73;6.72;;;6.70;99.90;;;;;;5027211;28;20133;-77
2023/04/19 05:43:05;;;;;;;9.30;6.50;;;6.80;99.90;;;;;;5032678;28;20053;-77
2023/04/19 05:45:32;;;;;;;7.40;5.70;;;6.90;99.90;;;;;;5028204;28;20068;-75
2023/04/19 05:47:59;;;;;;;8.38;6.38;;;7.00;99.90;;;;;;5034052;28;20124;-77
2023/04/19 05:50:25;;;;;;;10.05;6.90;;;7.10;99.90;;;;;;5031356;28;20045;-77
2023/04/19 05:52:52;;;;;;;15.68;7.72;;;7.30;99.90;;;;;;5033268;28;20037;-78
2023/04/19 05:55:19;;;;;;;9.52;6.72;;;7.40;99.90;;;;;;5031577;28;20044;-77
2023/04/19 05:57:45;;;;;;;11.05;8.15;;;7.50;99.90;;;;;;5034036;28;20109;-78
2023/04/19 06:00:13;;;;;;;10.13;7.13;;;7.60;99.90;;;;;;5031987;28;20038;-77
2023/04/19 06:02:39;;;;;;;11.43;8.40;;;7.70;99.90;;;;;;5034199;28;20115;-78
2023/04/19 06:05:07;;;;;;;10.63;8.52;;;7.80;99.90;;;;;;5038791;28;20124;-77
2023/04/19 06:07:36;;;;;;;8.57;6.50;;;7.80;99.90;;;;;;5033941;28;20049;-77
2023/04/19 06:10:12;;;;;;;12.93;9.10;;;7.90;99.90;;;;;;5032323;28;20092;-77
2023/04/19 06:12:39;;;;;;;14.75;8.75;;;8.00;99.90;;;;;;5032126;28;20073;-78
2023/04/19 06:15:06;;;;;;;13.23;9.05;;;8.10;99.90;;;;;;5033334;28;20045;-78
2023/04/19 06:17:33;;;;;;;12.02;9.30;;;8.20;99.90;;;;;;5032406;28;20088;-78
2023/04/19 06:20:00;;;;;;;14.65;9.65;;;8.30;99.90;;;;;;5027571;28;20049;-77
2023/04/19 06:22:27;;;;;;;11.57;9.05;;;8.40;99.90;;;;;;5029180;28;20132;-76
2023/04/19 06:24:54;;;;;;;15.20;9.80;;;8.40;99.90;;;;;;5027613;28;20125;-76
2023/04/19 06:27:20;;;;;;;13.55;10.60;;;8.50;99.90;;;;;;5028817;28;20045;-77
2023/04/19 06:29:47;;;;;;;15.25;10.18;;;8.60;99.90;;;;;;5026047;28;20041;-76
2023/04/19 06:32:16;;;;;;;12.32;9.80;;;8.70;99.90;;;;;;5031321;28;20092;-77
2023/04/19 06:34:43;;;;;;;14.38;9.63;;;8.80;99.90;;;;;;5032892;28;20068;-78
2023/04/19 06:37:10;;;;;;;13.57;9.45;;;8.90;99.90;;;;;;5028368;28;20084;-76
2023/04/19 06:39:36;;;;;;;13.10;9.93;;;9.00;99.90;;;;;;5033553;28;20180;-78
2023/04/19 06:42:04;;;;;;;12.07;8.88;;;9.00;99.90;;;;;;5033072;28;20081;-77
2023/04/19 06:44:31;;;;;;;10.98;8.27;;;9.10;99.90;;;;;;5033070;28;20068;-77
2023/04/19 06:46:57;;;;;;;14.27;8.95;;;9.20;99.90;;;;;;5032808;28;20129;-78
2023/04/19 06:49:24;;;;;;;12.05;8.95;;;9.30;99.90;;;;;;5032077;28;20124;-77
2023/04/19 06:51:52;;;;;;;13.65;10.20;;;9.30;99.90;;;;;;5029127;28;20080;-78
2023/04/19 06:54:18;;;;;;;13.88;10.27;;;9.30;99.90;;;;;;5031057;28;20042;-78
2023/04/19 06:56:47;;;;;;;12.98;10.15;;;9.30;99.90;;;;;;5030650;28;20111;-77
2023/04/19 06:59:19;;;;;;;14.48;9.90;;;9.30;99.90;;;;;;5032576;28;20080;-78
2023/04/19 07:01:46;;;;;;;15.55;10.00;;;9.40;99.90;;;;;;5027677;28;20050;-77
2023/04/19 07:04:14;;;;;;;16.10;11.38;;;9.40;99.90;;;;;;5030299;28;20124;-77
2023/04/19 07:06:41;;;;;;;14.05;10.15;;;9.40;99.90;;;;;;5029442;28;20077;-76
2023/04/19 07:09:08;;;;;;;14.68;9.70;;;9.50;99.90;;;;;;5030603;28;20544;-77
2023/04/19 07:11:35;;;;;;;14.65;9.95;;;9.50;99.90;;;;;;5030390;28;20073;-77
2023/04/19 07:14:01;;;;;;;13.13;9.00;;;9.50;99.90;;;;;;5032582;28;20045;-78
2023/04/19 07:16:28;;;;;;;15.52;10.00;;;9.50;99.90;;;;;;5030719;28;20088;-77
2023/04/19 07:18:56;;;;;;;12.57;9.38;;;9.60;99.90;;;;;;5032632;28;20132;-77
2023/04/19 07:21:25;;;;;;;14.32;7.38;;;9.60;99.90;;;;;;5029656;28;20088;-77
2023/04/19 07:23:52;;;;;;;9.77;7.53;;;9.70;99.90;;;;;;5029685;28;20567;-78
2023/04/19 07:26:19;;;;;;;10.35;7.45;;;9.70;99.90;;;;;;5028245;28;20359;-78
2023/04/19 07:28:45;;;;;;;9.43;7.22;;;9.80;99.90;;;;;;5023621;28;20525;-78
2023/04/19 07:31:16;;;;;;;14.40;8.05;;;9.90;99.90;;;;;;5025498;28;20111;-75
2023/04/19 07:33:43;;;;;;;13.32;7.97;;;10.00;99.90;;;;;;5027927;28;20052;-76
2023/04/19 07:36:10;;;;;;;10.82;6.90;;;10.10;99.90;;;;;;5024498;28;20124;-77
2023/04/19 07:38:37;;;;;;;9.02;6.53;;;10.20;99.90;;;;;;5030289;28;20506;-76
2023/04/19 07:41:04;;;;;;;10.23;6.35;;;10.30;99.90;;;;;;5027781;28;20041;-77
2023/04/19 07:43:31;;;;;;;9.25;6.95;;;10.40;99.90;;;;;;5028074;28;20177;-78
2023/04/19 07:45:58;;;;;;;8.32;6.40;;;10.50;99.90;;;;;;5026160;28;20117;-77
2023/04/19 07:48:25;;;;;;;10.25;6.80;;;10.50;99.90;;;;;;5027731;28;20575;-76
2023/04/19 07:50:51;;;;;;;8.23;6.90;;;10.50;99.90;;;;;;5027468;28;20076;-77
2023/04/19 07:53:18;;;;;;;9.70;7.65;;;10.50;99.90;;;;;;5026845;28;20044;-78
2023/04/19 07:55:45;;;;;;;11.05;8.18;;;10.60;99.90;;;;;;5028843;28;20129;-77
2023/04/19 07:58:11;;;;;;;10.27;8.57;;;10.60;99.90;;;;;;5027252;28;20479;-77
2023/04/19 08:00:38;;;;;;;13.32;10.25;;;10.60;99.90;;;;;;5025134;28;20112;-78
2023/04/19 08:03:05;;;;;;;16.90;11.20;;;10.70;99.90;;;;;;5030643;28;20068;-78
2023/04/19 08:05:33;;;;;;;14.25;10.43;;;10.80;99.90;;;;;;5027172;28;20079;-78
2023/04/19 08:07:59;;;;;;;14.77;11.63;;;10.80;99.90;;;;;;5029518;28;20436;-78
2023/04/19 08:10:27;;;;;;;13.80;11.50;;;10.90;99.90;;;;;;5028205;28;20072;-77
2023/04/19 08:12:54;;;;;;;20.58;12.00;;;10.90;99.90;;;;;;5029417;28;20119;-77
2023/04/19 08:15:33;;;;;;;13.52;11.35;;;10.90;99.90;;;;;;5026157;28;20536;-78
2023/04/19 08:18:06;;;;;;;17.08;11.73;;;11.00;99.90;;;;;;5034905;28;20041;-77
2023/04/19 08:20:33;;;;;;;16.17;11.88;;;11.00;99.90;;;;;;5035719;28;20091;-79
2023/04/19 08:23:00;;;;;;;14.70;11.73;;;11.10;99.90;;;;;;5031124;28;20049;-77
2023/04/19 08:25:40;;;;;;;15.45;12.13;;;11.20;99.90;;;;;;5032028;28;20448;-79
2023/04/19 08:28:06;;;;;;;15.57;12.48;;;11.10;99.90;;;;;;5037100;28;20052;-78
2023/04/19 08:30:33;;;;;;;16.45;12.77;;;11.10;99.90;;;;;;5034623;28;20097;-77
2023/04/19 08:33:00;;;;;;;16.90;12.27;;;11.20;99.90;;;;;;5037535;28;20068;-78
2023/04/19 08:35:27;;;;;;;15.77;11.40;;;11.20;99.90;;;;;;5033740;28;20049;-78
2023/04/19 08:37:54;;;;;;;16.60;11.68;;;11.20;99.90;;;;;;5035157;28;20069;-79
2023/04/19 08:40:20;;;;;;;14.80;11.60;;;11.30;99.90;;;;;;5034974;28;20069;-79
2023/04/19 08:42:47;;;;;;;16.20;11.75;;;11.40;99.90;;;;;;5034786;28;20144;-79
2023/04/19 08:45:17;;;;;;;13.88;11.48;;;11.40;99.90;;;;;;5032065;28;20068;-78
2023/04/19 08:47:56;;;;;;;14.43;12.07;;;11.50;99.90;;;;;;5034719;28;20129;-78
2023/04/19 08:50:28;;;;;;;14.13;11.65;;;11.50;99.90;;;;;;5031247;28;20042;-79
2023/04/19 08:53:00;;;;;;;13.60;11.60;;;11.60;99.90;;;;;;5033022;28;20055;-78
2023/04/19 08:55:47;;;;;;;13.95;9.77;;;11.70;99.90;;;;;;5035153;28;20053;-78
2023/04/19 08:58:34;;;;;;;11.63;10.10;;;11.70;99.90;;;;;;5036380;28;20053;-79
2023/04/19 09:01:05;;;;;;;12.88;9.93;;;11.70;99.90;;;;;;5032642;28;20191;-78
2023/04/19 09:03:32;;;;;;;12.77;9.93;;;11.80;99.90;;;;;;5035040;28;20049;-79
2023/04/19 09:06:13;;;;;;;12.57;9.85;;;11.70;99.90;;;;;;5029275;28;20088;-78
2023/04/19 09:08:40;;;;;;;11.18;8.98;;;11.70;99.90;;;;;;5028339;28;20454;-78
2023/04/19 09:11:08;;;;;;;11.75;9.02;;;11.70;99.90;;;;;;5031629;28;20073;-79
2023/04/19 09:13:41;;;;;;;12.77;9.43;;;11.80;99.90;;;;;;5033561;28;20050;-77
2023/04/19 09:16:25;;;;;;;11.25;8.35;;;11.90;99.90;;;;;;5028090;28;20549;-78
2023/04/19 09:18:57;;;;;;;11.90;10.02;;;12.00;99.90;;;;;;5030656;28;20402;-77
2023/04/19 09:21:41;;;;;;;12.52;8.55;;;12.00;99.90;;;;;;5030048;28;20557;-77
2023/04/19 09:24:08;;;;;;;12.40;8.90;;;12.00;99.90;;;;;;5032625;28;20489;-77
2023/04/19 09:26:35;;;;;;;10.82;7.53;;;12.10;99.90;;;;;;5031925;28;20080;-77
2023/04/19 09:29:06;;;;;;;14.13;7.47;;;12.10;99.90;;;;;;5030041;28;20594;-77
2023/04/19 09:31:34;;;;;;;11.13;8.48;;;12.10;99.90;;;;;;5029550;28;20045;-78
2023/04/19 09:34:18;;;;;;;10.15;8.23;;;12.20;99.90;;;;;;5028654;28;20057;-77
2023/04/19 09:36:45;;;;;;;11.15;7.88;;;12.20;99.90;;;;;;5031855;28;20072;-77
2023/04/19 09:39:13;;;;;;;11.40;7.93;;;12.20;99.90;;;;;;5029337;28;20069;-77
2023/04/19 09:41:53;;;;;;;13.90;8.80;;;12.20;99.90;;;;;;5027582;28;20153;-77
2023/04/19 09:44:20;;;;;;;10.60;8.40;;;12.20;99.90;;;;;;5028732;28;20092;-77
2023/04/19 09:47:28;;;;;;;12.23;9.93;;;12.20;99.90;;;;;;5021924;28;20051;-77
2023/04/19 09:50:06;;;;;;;15.93;10.68;;;12.20;99.90;;;;;;5027997;28;20505;-77
2023/04/19 09:52:49;;;;;;;16.63;12.20;;;12.30;99.90;;;;;;5025171;28;20049;-76
2023/04/19 09:55:18;;;;;;;15.20;12.05;;;12.50;99.90;;;;;;5027747;28;20060;-78
2023/04/19 09:57:47;;;;;;;13.15;10.10;;;12.50;99.90;;;;;;5031381;28;20053;-76
2023/04/19 10:00:14;;;;;;;14.27;11.23;;;12.50;99.90;;;;;;5030340;28;20059;-77
2023/04/19 10:02:43;;;;;;;13.85;11.63;;;12.50;99.90;;;;;;5031464;28;20509;-78
2023/04/19 10:05:11;;;;;;;16.63;12.88;;;12.50;99.90;;;;;;5031293;28;20128;-77
2023/04/19 10:07:51;;;;;;;16.13;12.52;;;12.50;99.90;;;;;;5032681;28;20075;-76
2023/04/19 10:10:22;;;;;;;14.30;12.43;;;12.60;99.90;;;;;;5028974;28;20037;-78
2023/04/19 10:13:12;;;;;;;14.98;11.52;;;12.60;99.90;;;;;;5032180;28;20508;-78
2023/04/19 10:15:44;;;;;;;14.30;10.75;;;12.50;99.90;;;;;;5029707;28;20049;-76
2023/04/19 10:18:22;;;;;;;16.05;12.43;;;12.60;99.90;;;;;;5026088;28;20068;-77
2023/04/19 10:20:56;;;;;;;15.15;11.10;;;12.50;99.90;;;;;;5028801;28;20133;-76
2023/04/19 10:23:23;;;;;;;15.20;11.63;;;12.50;99.90;;;;;;5021855;28;20052;-77
2023/04/19 10:25:58;;;;;;;13.15;11.52;;;12.50;99.90;;;;;;5030986;28;20523;-77
2023/04/19 10:28:28;;;;;;;15.20;11.80;;;12.50;99.90;;;;;;5028159;28;20053;-77
2023/04/19 10:31:03;;;;;;;15.88;12.35;;;12.50;99.90;;;;;;5032461;28;20073;-77
2023/04/19 10:33:35;;;;;;;14.55;12.05;;;12.60;99.90;;;;;;5032226;28;20045;-77
2023/04/19 10:36:02;;;;;;;14.18;11.55;;;12.60;99.90;;;;;;5031911;28;20046;-78
2023/04/19 10:38:43;;;;;;;12.65;11.15;;;12.70;99.90;;;;;;5032786;28;20045;-77
2023/04/19 10:41:10;;;;;;;15.65;11.35;;;12.70;99.90;;;;;;5027847;28;20073;-76
2023/04/19 10:43:54;;;;;;;14.65;11.73;;;12.70;99.90;;;;;;5031366;28;20140;-77
2023/04/19 10:46:20;;;;;;;16.05;11.95;;;12.80;99.90;;;;;;5029743;28;20041;-76
2023/04/19 10:48:54;;;;;;;13.05;11.57;;;12.70;99.90;;;;;;5029823;28;20046;-76
2023/04/19 10:51:35;;;;;;;15.30;11.38;;;12.70;99.90;;;;;;5030678;28;20070;-76
2023/04/19 10:54:06;;;;;;;16.90;11.50;;;12.70;99.90;;;;;;5030187;28;20484;-78
2023/04/19 10:56:33;;;;;;;12.40;11.13;;;12.70;99.90;;;;;;5027749;28;20049;-76
2023/04/19 10:59:13;;;;;;;15.32;11.23;;;12.60;99.90;;;;;;5028777;28;20050;-79
2023/04/19 11:01:45;;;;;;;15.20;11.63;;;12.60;99.90;;;;;;5028589;28;20107;-78
2023/04/19 11:04:17;;;;;;;17.35;12.48;;;12.60;99.90;;;;;;5026806;28;20045;-76
2023/04/19 11:06:52;;;;;;;18.98;12.32;;;12.60;99.90;;;;;;5026955;28;20558;-77
2023/04/19 11:09:31;;;;;;;14.52;11.90;;;12.60;99.90;;;;;;5032753;28;20046;-77
2023/04/19 11:12:02;;;;;;;13.98;10.90;;;12.60;99.90;;;;;;5028217;28;20056;-78
2023/04/19 11:14:39;;;;;;;15.60;12.05;;;12.60;99.90;;;;;;5030396;28;20096;-77
2023/04/19 11:17:19;;;;;;;16.30;13.13;;;12.60;99.90;;;;;;5023550;28;20137;-78
2023/04/19 11:20:00;;;;;;;16.25;13.05;;;12.60;99.90;;;;;;5028470;28;20112;-77
2023/04/19 11:22:39;;;;;;;15.13;11.77;;;12.60;99.90;;;;;;5040778;28;20140;-77
2023/04/19 11:25:11;;;;;;;18.17;12.98;;;12.60;99.90;;;;;;5029625;28;20150;-77
2023/04/19 11:27:44;;;;;;;15.23;12.98;;;12.70;99.90;;;;;;5031818;28;20042;-77
2023/04/19 11:30:13;;;;;;;15.68;12.85;;;12.70;99.90;;;;;;5027184;28;20561;-77
2023/04/19 11:32:53;;;;;;;15.45;12.50;;;12.70;99.90;;;;;;5026055;28;20073;-77
2023/04/19 11:35:25;;;;;;;15.15;13.07;;;12.70;99.90;;;;;;5027712;28;20144;-78
2023/04/19 11:37:53;;;;;;;16.15;13.23;;;12.70;99.90;;;;;;5032158;28;20132;-77
2023/04/19 11:40:22;;;;;;;18.98;13.45;;;12.70;99.90;;;;;;5030979;28;20045;-78
2023/04/19 11:43:01;;;;;;;19.23;12.57;;;12.80;99.90;;;;;;5032092;28;20056;-77
2023/04/19 11:45:36;;;;;;;15.32;12.45;;;12.70;99.90;;;;;;5028159;28;20548;-77
2023/04/19 11:48:11;;;;;;;15.70;13.07;;;12.70;99.90;;;;;;5029588;28;20100;-77
2023/04/19 11:50:40;;;;;;;15.43;11.98;;;12.70;99.90;;;;;;5028860;28;20069;-78
2023/04/19 11:53:19;;;;;;;16.98;12.68;;;12.70;99.90;;;;;;5031457;28;20057;-77
2023/04/19 11:55:55;;;;;;;14.57;11.23;;;12.80;99.90;;;;;;5031485;28;20140;-78
2023/04/19 11:58:28;;;;;;;13.18;11.20;;;12.70;99.90;;;;;;5032171;28;20571;-78
2023/04/19 12:00:57;;;;;;;12.45;9.85;;;12.80;99.90;;;;;;5036410;28;20072;-78
2023/04/19 12:03:24;;;;;;;14.73;10.57;;;12.80;99.90;;;;;;5030131;28;20517;-78
2023/04/19 12:05:57;;;;;;;14.07;10.70;;;12.80;99.90;;;;;;5035980;28;20037;-78
2023/04/19 12:08:35;;;;;;;11.90;10.05;;;12.90;99.90;;;;;;5033385;28;20087;-78
2023/04/19 12:11:02;;;;;;;16.60;10.00;;;13.00;99.90;;;;;;5031803;28;20095;-77
2023/04/19 12:13:30;;;;;;;11.10;9.73;;;13.10;99.90;;;;;;5033590;28;20077;-78
2023/04/19 12:15:57;;;;;;;14.25;9.38;;;13.30;99.90;;;;;;5030800;28;20057;-77
2023/04/19 12:18:26;;;;;;;12.40;10.00;;;13.40;99.90;;;;;;5034661;28;20085;-76
2023/04/19 12:20:53;;;;;;;11.43;9.15;;;13.50;99.90;;;;;;5032098;28;20049;-78
2023/04/19 12:23:20;;;;;;;12.68;8.43;;;13.60;99.90;;;;;;5033375;28;20049;-78
2023/04/19 12:25:48;;;;;;;10.45;8.68;;;13.60;99.90;;;;;;5029131;28;20053;-77
2023/04/19 12:28:15;;;;;;;10.20;8.25;;;13.60;99.90;;;;;;5036326;28;20436;-78
2023/04/19 12:30:43;;;;;;;11.45;7.65;;;13.60;99.90;;;;;;5035776;28;20041;-77
2023/04/19 12:33:10;;;;;;;9.05;7.13;;;13.50;99.90;;;;;;5036122;28;20083;-78
2023/04/19 12:35:38;;;;;;;10.98;6.90;;;13.60;99.90;;;;;;5036501;28;20480;-78
2023/04/19 12:38:04;;;;;;;9.60;6.85;;;13.60;99.90;;;;;;5035870;28;20041;-78
2023/04/19 12:40:31;;;;;;;10.02;7.38;;;13.60;99.90;;;;;;5036317;28;20064;-77
2023/04/19 12:42:58;;;;;;;11.55;8.60;;;13.60;99.90;;;;;;5036548;28;20077;-78
2023/04/19 12:45:25;;;;;;;10.68;8.40;;;13.60;99.90;;;;;;5029653;28;20140;-78
2023/04/19 12:47:52;;;;;;;14.60;8.85;;;13.60;99.90;;;;;;5034708;28;20417;-78
2023/04/19 12:50:19;;;;;;;9.93;8.40;;;13.60;99.90;;;;;;5031262;28;20049;-77
2023/04/19 12:52:46;;;;;;;11.10;7.20;;;13.60;99.90;;;;;;5034077;28;20045;-78
2023/04/19 12:55:13;;;;;;;13.02;8.80;;;13.70;99.90;;;;;;5033460;28;20088;-78